Time;durP1;ratioP1;P1;durP2;ratioP2;P2;SDS_P1;SDS_P2;PMS_P1;PMS_P2;Temp;Humidity;BMP_temperature;BMP_pressure;BME280_temperature;BME280_humidity;BME280_pressure;Samples;Min_cycle;Max_cycle;Signal;HPM_P1;HPM_P2
2023/06/24 00:02:53;;;;;;;12.10;7.62;;;;;;;18.09;100.00;100451.66;5566827;32;33859;-67
2023/06/24 00:05:57;;;;;;;9.90;7.87;;;;;;;18.15;100.00;100476.84;5566750;32;34751;-68
2023/06/24 00:09:02;;;;;;;10.02;8.18;;;;;;;18.18;100.00;100484.44;5566797;32;33939;-68
2023/06/24 00:12:06;;;;;;;10.77;8.07;;;;;;;18.20;100.00;100485.06;5566511;32;34045;-67
2023/06/24 00:15:10;;;;;;;8.65;7.53;;;;;;;18.20;100.00;100495.81;5566595;32;34134;-69
2023/06/24 00:18:13;;;;;;;12.65;7.97;;;;;;;18.21;100.00;100503.62;5566673;32;33978;-68
2023/06/24 00:21:16;;;;;;;10.20;6.85;;;;;;;18.31;100.00;100505.03;5566322;32;34011;-68
2023/06/24 00:24:21;;;;;;;8.60;6.47;;;;;;;18.29;100.00;100497.22;5566640;32;34638;-69
2023/06/24 00:27:23;;;;;;;10.88;6.72;;;;;;;18.32;100.00;100507.50;5566313;32;33851;-68
2023/06/24 00:30:28;;;;;;;12.10;6.60;;;;;;;18.36;100.00;100513.25;5565474;32;34214;-69
2023/06/24 00:33:35;;;;;;;7.12;6.43;;;;;;;18.35;100.00;100495.53;5565267;32;34061;-68
2023/06/24 00:36:39;;;;;;;8.07;6.37;;;;;;;18.33;100.00;100495.72;5566527;32;34768;-69
2023/06/24 00:39:41;;;;;;;9.43;6.45;;;;;;;18.34;100.00;100486.62;5566101;32;34114;-69
2023/06/24 00:42:45;;;;;;;15.15;6.60;;;;;;;18.28;100.00;100482.13;5566132;32;34057;-65
2023/06/24 00:45:48;;;;;;;9.05;6.30;;;;;;;18.32;100.00;100499.44;5566694;32;34503;-68
2023/06/24 00:48:56;;;;;;;6.20;5.60;;;;;;;18.31;100.00;100478.16;5568517;32;33941;-68
2023/06/24 00:52:00;;;;;;;9.33;6.87;;;;;;;18.27;100.00;100477.78;5568456;32;35317;-68
2023/06/24 00:55:04;;;;;;;8.18;6.35;;;;;;;18.25;100.00;100477.16;5568412;32;34681;-69
2023/06/24 00:58:07;;;;;;;8.20;6.22;;;;;;;18.23;100.00;100465.84;5568505;32;33859;-68
2023/06/24 01:01:10;;;;;;;8.02;6.43;;;;;;;18.23;100.00;100466.66;5568492;32;34746;-68
2023/06/24 01:04:13;;;;;;;8.20;6.47;;;;;;;18.18;100.00;100450.37;5568499;32;33955;-68
2023/06/24 01:07:16;;;;;;;7.20;6.50;;;;;;;18.17;100.00;100432.59;5568432;32;34022;-68
2023/06/24 01:10:19;;;;;;;10.50;6.30;;;;;;;18.17;100.00;100429.09;5568439;32;34094;-69
2023/06/24 01:13:22;;;;;;;8.18;6.65;;;;;;;18.15;100.00;100437.34;5568457;32;34921;-69
2023/06/24 01:16:49;;;;;;;9.25;6.82;;;;;;;18.11;100.00;100438.00;5567379;32;34667;-69
2023/06/24 01:20:14;;;;;;;8.05;6.35;;;;;;;18.11;100.00;100433.47;5568430;32;34134;-68
2023/06/24 01:23:30;;;;;;;9.63;6.25;;;;;;;18.07;100.00;100426.87;5568279;32;34710;-68
2023/06/24 01:26:51;;;;;;;12.95;6.35;;;;;;;18.11;100.00;100422.72;5568355;32;33977;-70
2023/06/24 01:30:35;;;;;;;8.73;5.82;;;;;;;18.11;100.00;100411.16;5568210;32;34108;-68
2023/06/24 01:34:26;;;;;;;6.10;5.50;;;;;;;18.16;100.00;100419.38;5568026;31;33835;-70
2023/06/24 01:37:51;;;;;;;12.93;5.20;;;;;;;18.15;100.00;100417.75;5520659;31;33691;-69
2023/06/24 01:40:55;;;;;;;11.70;5.40;;;;;;;18.18;100.00;100401.22;5568160;32;34862;-68
2023/06/24 01:43:59;;;;;;;8.60;5.30;;;;;;;18.16;100.00;100403.28;5568090;32;34059;-69
2023/06/24 01:47:06;;;;;;;7.10;4.95;;;;;;;18.17;100.00;100402.25;5568075;32;34375;-67
2023/06/24 01:50:11;;;;;;;7.03;4.97;;;;;;;18.14;100.00;100395.44;5567531;32;35451;-68
2023/06/24 01:53:17;;;;;;;6.68;4.90;;;;;;;18.12;100.00;100402.87;5567984;32;33808;-70
2023/06/24 01:56:23;;;;;;;5.78;4.37;;;;;;;18.11;100.00;100409.28;5568073;32;33805;-70
2023/06/24 01:59:29;;;;;;;6.60;4.50;;;;;;;18.08;100.00;100403.53;5567417;32;34209;-70
2023/06/24 02:02:33;;;;;;;4.85;4.07;;;;;;;18.09;100.00;100384.53;5567946;32;34023;-68
2023/06/24 02:05:39;;;;;;;5.28;4.40;;;;;;;18.12;100.00;100391.31;5567898;32;34079;-68
2023/06/24 02:08:48;;;;;;;7.80;4.22;;;;;;;18.15;100.00;100401.66;5567999;32;34140;-66
2023/06/24 02:11:51;;;;;;;5.80;4.15;;;;;;;18.06;100.00;100387.62;5568014;32;33838;-67
2023/06/24 02:14:55;;;;;;;4.93;4.18;;;;;;;18.00;100.00;100385.00;5567893;32;35154;-70
2023/06/24 02:18:02;;;;;;;5.87;4.40;;;;;;;17.98;100.00;100392.44;5567009;32;33842;-69
2023/06/24 02:21:05;;;;;;;6.15;4.25;;;;;;;17.96;100.00;100394.53;5567689;32;34091;-70
2023/06/24 02:24:09;;;;;;;8.18;4.75;;;;;;;17.90;100.00;100392.72;5568246;32;33812;-69
2023/06/24 02:27:12;;;;;;;6.15;4.40;;;;;;;17.86;100.00;100403.06;5567795;32;33856;-68
2023/06/24 02:30:16;;;;;;;5.25;4.50;;;;;;;17.84;100.00;100398.94;5567646;32;34815;-66
2023/06/24 02:33:18;;;;;;;8.48;4.93;;;;;;;17.85;100.00;100398.72;5567755;32;33863;-70
2023/06/24 02:36:21;;;;;;;8.40;4.55;;;;;;;17.86;100.00;100412.97;5567787;32;33934;-69
2023/06/24 02:39:24;;;;;;;6.50;4.20;;;;;;;17.83;100.00;100408.84;5567692;32;34816;-70
2023/06/24 02:42:27;;;;;;;4.78;3.90;;;;;;;17.81;100.00;100409.03;5567545;32;33940;-69
2023/06/24 02:45:30;;;;;;;7.65;4.05;;;;;;;17.82;100.00;100423.28;5567580;32;34805;-70
2023/06/24 02:48:36;;;;;;;4.78;3.70;;;;;;;17.87;100.00;100409.22;5567587;32;34796;-69
2023/06/24 02:51:39;;;;;;;6.07;4.20;;;;;;;17.81;100.00;100411.72;5567587;32;34021;-67
2023/06/24 02:54:44;;;;;;;6.57;4.30;;;;;;;17.85;100.00;100416.69;5567631;32;34882;-69
2023/06/24 02:57:51;;;;;;;7.18;3.87;;;;;;;17.81;100.00;100418.97;5567429;32;34753;-69
2023/06/24 03:00:56;;;;;;;7.50;3.67;;;;;;;17.79;100.00;100429.91;5567499;32;34485;-69
2023/06/24 03:03:59;;;;;;;6.40;3.67;;;;;;;17.78;100.00;100432.81;5567363;32;33874;-69
2023/06/24 03:07:02;;;;;;;8.40;3.62;;;;;;;17.80;100.00;100444.16;5567404;32;34162;-69
2023/06/24 03:10:06;;;;;;;5.45;3.90;;;;;;;17.74;100.00;100435.09;5561211;32;34732;-68
2023/06/24 03:13:10;;;;;;;8.23;3.58;;;;;;;17.76;100.00;100435.72;5567450;32;35051;-70
2023/06/24 03:16:14;;;;;;;10.13;3.53;;;;;;;17.72;100.00;100444.37;5567325;32;33893;-69
2023/06/24 03:19:18;;;;;;;6.68;4.00;;;;;;;17.67;100.00;100449.59;5567402;32;33952;-68
2023/06/24 03:22:22;;;;;;;7.47;3.60;;;;;;;17.64;100.00;100456.19;5567239;32;34765;-69
2023/06/24 03:25:26;;;;;;;6.15;3.72;;;;;;;17.66;100.00;100451.44;5553720;32;34229;-69
2023/06/24 03:28:31;;;;;;;10.68;3.90;;;;;;;17.62;100.00;100446.72;5567647;32;34642;-66
2023/06/24 03:31:35;;;;;;;6.22;3.70;;;;;;;17.63;100.00;100459.06;5567210;32;33990;-69
2023/06/24 03:34:38;;;;;;;6.28;3.70;;;;;;;17.57;100.00;100447.28;5567115;32;34109;-69
2023/06/24 03:37:43;;;;;;;6.62;3.40;;;;;;;17.53;100.00;100447.94;5567473;32;34039;-68
2023/06/24 03:40:46;;;;;;;6.43;3.80;;;;;;;17.47;100.00;100446.94;5553308;32;34561;-69
2023/06/24 03:43:49;;;;;;;8.27;4.00;;;;;;;17.47;100.00;100436.22;5567025;32;34198;-70
2023/06/24 03:46:53;;;;;;;6.30;4.28;;;;;;;17.45;100.00;100450.84;5566972;32;33847;-69
2023/06/24 03:49:56;;;;;;;9.45;3.95;;;;;;;17.42;100.00;100459.31;5566830;32;34944;-69
2023/06/24 03:52:58;;;;;;;5.10;3.53;;;;;;;17.45;100.00;100450.84;5552821;32;34218;-67
2023/06/24 03:56:02;;;;;;;6.32;3.90;;;;;;;17.47;100.00;100463.03;5560313;32;33708;-66
2023/06/24 03:59:04;;;;;;;5.93;4.03;;;;;;;17.49;100.00;100468.16;5566824;32;35212;-69
2023/06/24 04:02:08;;;;;;;6.85;3.75;;;;;;;17.50;100.00;100483.22;5566654;32;34069;-70
2023/06/24 04:05:11;;;;;;;11.65;3.60;;;;;;;17.47;100.00;100495.22;5567040;32;33831;-70
2023/06/24 04:08:14;;;;;;;7.32;3.50;;;;;;;17.53;100.00;100504.25;5566999;32;33899;-68
2023/06/24 04:11:18;;;;;;;4.45;3.15;;;;;;;17.52;100.00;100511.50;5566939;32;34244;-70
2023/06/24 04:14:20;;;;;;;5.85;3.30;;;;;;;17.53;100.00;100517.66;5566506;32;34102;-67
2023/06/24 04:17:23;;;;;;;5.50;3.40;;;;;;;17.57;100.00;100511.69;5566503;32;34190;-69
2023/06/24 04:20:26;;;;;;;5.72;2.75;;;;;;;17.58;100.00;100512.50;5567941;32;34153;-69
2023/06/24 04:23:29;;;;;;;5.15;3.12;;;;;;;17.58;100.00;100521.38;5572928;32;33865;-69
2023/06/24 04:26:32;;;;;;;4.07;2.28;;;;;;;17.72;100.00;100536.44;5572762;32;34839;-69
2023/06/24 04:29:35;;;;;;;4.40;2.60;;;;;;;17.75;100.00;100521.78;5572905;32;33867;-69
2023/06/24 04:32:37;;;;;;;6.30;2.30;;;;;;;17.86;100.00;100507.72;5572744;32;34833;-69
2023/06/24 04:35:40;;;;;;;3.05;2.20;;;;;;;17.92;100.00;100509.53;5572634;32;34023;-69
2023/06/24 04:38:43;;;;;;;8.30;2.45;;;;;;;17.96;100.00;100505.37;5572641;32;34854;-68
2023/06/24 04:41:46;;;;;;;5.40;2.22;;;;;;;17.95;100.00;100511.81;5572512;32;34244;-69
2023/06/24 04:44:52;;;;;;;4.12;2.20;;;;;;;17.98;100.00;100502.50;5558768;32;34649;-65
2023/06/24 04:47:54;;;;;;;4.47;1.90;;;;;;;17.97;100.00;100500.84;5572554;32;34182;-68
2023/06/24 04:50:58;;;;;;;5.03;1.92;;;;;;;18.04;100.00;100490.91;5572445;32;34768;-69
2023/06/24 04:54:00;;;;;;;3.83;1.75;;;;;;;18.15;100.00;100507.16;5558536;32;33739;-66
2023/06/24 04:57:08;;;;;;;3.08;1.40;;;;;;;18.06;100.00;100508.44;5572578;32;34091;-68
2023/06/24 05:00:11;;;;;;;2.78;1.50;;;;;;;18.15;100.00;100511.75;5572280;32;34671;-68
2023/06/24 05:03:14;;;;;;;1.70;1.42;;;;;;;18.13;100.00;100506.56;5578584;31;35364;-69
2023/06/24 05:06:17;;;;;;;3.42;1.37;;;;;;;18.14;100.00;100505.53;5591374;31;34049;-70
2023/06/24 05:09:19;;;;;;;4.95;1.20;;;;;;;18.18;100.00;100508.63;5591788;31;34045;-68
2023/06/24 05:12:22;;;;;;;5.53;1.85;;;;;;;18.23;100.00;100514.16;5591533;31;34806;-70
2023/06/24 05:15:24;;;;;;;3.42;1.35;;;;;;;18.30;100.00;100514.16;5591568;31;34852;-65
2023/06/24 05:18:27;;;;;;;3.22;1.30;;;;;;;18.30;100.00;100511.47;5591609;31;33859;-68
2023/06/24 05:21:30;;;;;;;5.32;1.20;;;;;;;18.48;100.00;100507.00;5591284;31;34580;-68
2023/06/24 05:24:33;;;;;;;4.40;1.73;;;;;;;18.52;100.00;100513.59;5591479;31;34136;-70
2023/06/24 05:27:35;;;;;;;5.95;1.30;;;;;;;18.65;100.00;100523.44;5591430;31;35517;-70
2023/06/24 05:30:38;;;;;;;2.65;1.20;;;;;;;18.58;100.00;100520.00;5591404;31;34093;-66
2023/06/24 05:33:41;;;;;;;2.75;1.20;;;;;;;18.62;100.00;100535.47;5588276;31;34151;-68
2023/06/24 05:36:43;;;;;;;4.62;1.00;;;;;;;18.65;100.00;100536.88;5587711;31;34077;-65
2023/06/24 05:39:46;;;;;;;1.70;1.00;;;;;;;18.93;100.00;100553.44;5587738;31;33998;-69
2023/06/24 05:42:49;;;;;;;3.62;1.10;;;;;;;18.82;100.00;100542.59;5587384;31;34313;-69
2023/06/24 05:45:51;;;;;;;3.45;1.00;;;;;;;18.80;100.00;100539.28;5587753;31;34060;-69
2023/06/24 05:48:54;;;;;;;2.62;0.90;;;;;;;18.95;100.00;100546.00;5587527;31;34107;-68
2023/06/24 05:51:57;;;;;;;3.30;1.00;;;;;;;18.95;100.00;100554.06;5587223;31;34137;-66
2023/06/24 05:55:00;;;;;;;1.65;0.90;;;;;;;18.77;100.00;100547.78;5587515;31;33697;-68
2023/06/24 05:58:03;;;;;;;1.65;0.80;;;;;;;18.94;100.00;100559.63;5587487;31;34667;-69
2023/06/24 06:01:06;;;;;;;2.97;1.00;;;;;;;18.97;100.00;100559.22;5587352;31;34928;-68
2023/06/24 06:04:08;;;;;;;1.25;0.90;;;;;;;19.09;100.00;100576.28;5587248;31;34205;-68
2023/06/24 06:07:11;;;;;;;3.45;1.10;;;;;;;19.13;100.00;100580.19;5587340;31;33857;-69
2023/06/24 06:10:17;;;;;;;4.05;1.05;;;;;;;19.27;100.00;100575.50;5587263;31;34627;-66
2023/06/24 06:13:19;;;;;;;4.30;1.30;;;;;;;19.19;100.00;100571.25;5587231;31;33981;-65
2023/06/24 06:16:23;;;;;;;2.53;1.00;;;;;;;19.24;100.00;100579.47;5587325;31;34683;-68
2023/06/24 06:19:26;;;;;;;4.00;0.82;;;;;;;19.33;100.00;100575.47;5580289;31;33901;-66
2023/06/24 06:22:28;;;;;;;2.05;1.00;;;;;;;19.26;100.00;100579.28;5584552;31;33748;-69
2023/06/24 06:25:31;;;;;;;1.23;0.93;;;;;;;19.45;100.00;100589.91;5586574;31;34977;-68
2023/06/24 06:28:34;;;;;;;1.25;1.00;;;;;;;19.36;100.00;100583.13;5573428;31;34110;-70
2023/06/24 06:31:37;;;;;;;2.83;1.00;;;;;;;19.51;100.00;100597.06;5565990;31;35068;-70
2023/06/24 06:34:40;;;;;;;3.58;0.98;;;;;;;19.41;100.00;100596.72;5580496;31;34778;-70
2023/06/24 06:37:43;;;;;;;3.87;1.10;;;;;;;19.48;100.00;100591.31;5580502;31;34082;-70
2023/06/24 06:40:45;;;;;;;2.95;1.10;;;;;;;19.55;100.00;100593.94;5562209;31;34724;-69
2023/06/24 06:43:48;;;;;;;5.80;1.50;;;;;;;19.60;100.00;100594.94;5580457;31;35386;-69
2023/06/24 06:46:51;;;;;;;5.07;1.15;;;;;;;19.62;100.00;100597.38;5577890;31;34760;-68
2023/06/24 06:49:54;;;;;;;1.73;0.93;;;;;;;19.55;100.00;100597.47;5577496;31;34665;-67
2023/06/24 06:52:56;;;;;;;2.92;1.02;;;;;;;19.84;100.00;100609.41;5567495;32;33617;-68
2023/06/24 06:55:59;;;;;;;4.82;1.10;;;;;;;19.95;100.00;100604.09;5576671;31;34244;-68
2023/06/24 06:59:02;;;;;;;2.85;1.10;;;;;;;19.94;100.00;100597.06;5568245;31;34665;-67
2023/06/24 07:02:05;;;;;;;6.18;1.17;;;;;;;20.06;100.00;100605.22;5582755;31;33505;-65
2023/06/24 07:05:09;;;;;;;1.00;0.80;;;;;;;20.35;100.00;100609.06;5586916;31;34217;-67
2023/06/24 07:08:12;;;;;;;3.80;0.90;;;;;;;20.38;100.00;100608.62;5587025;31;33904;-70
2023/06/24 07:11:15;;;;;;;2.37;0.75;;;;;;;20.46;100.00;100599.41;5584504;31;34083;-69
2023/06/24 07:14:17;;;;;;;4.45;0.95;;;;;;;20.64;100.00;100610.97;5573714;31;34151;-69
2023/06/24 07:17:20;;;;;;;5.65;1.12;;;;;;;21.04;100.00;100600.44;5585666;31;34012;-69
2023/06/24 07:20:24;;;;;;;1.98;0.98;;;;;;;20.98;100.00;100589.75;5583800;31;34900;-69
2023/06/24 07:23:27;;;;;;;4.25;1.00;;;;;;;21.05;100.00;100606.66;5575286;31;33846;-68
2023/06/24 07:26:30;;;;;;;5.62;1.00;;;;;;;21.15;100.00;100597.00;5584328;31;34894;-68
2023/06/24 07:29:33;;;;;;;3.47;0.90;;;;;;;21.35;100.00;100596.66;5586371;31;35314;-69
2023/06/24 07:32:35;;;;;;;1.67;0.98;;;;;;;21.53;100.00;100609.25;5575612;31;33706;-68
2023/06/24 07:35:38;;;;;;;2.70;1.17;;;;;;;21.66;100.00;100614.41;5581431;31;34053;-71
2023/06/24 07:38:42;;;;;;;4.57;1.17;;;;;;;21.90;100.00;100610.63;5586322;31;34174;-69
2023/06/24 07:41:44;;;;;;;3.45;1.10;;;;;;;22.06;100.00;100612.66;5585780;31;33900;-69
2023/06/24 07:44:48;;;;;;;1.33;0.77;;;;;;;22.90;100.00;100619.22;5567749;31;33962;-70
2023/06/24 07:47:51;;;;;;;1.42;0.80;;;;;;;23.62;100.00;100629.41;5566514;32;33841;-68
2023/06/24 07:50:54;;;;;;;1.92;0.90;;;;;;;23.39;100.00;100642.00;5568162;31;33930;-69
2023/06/24 07:53:56;;;;;;;2.40;1.17;;;;;;;23.32;100.00;100635.94;5570835;31;34931;-69
2023/06/24 07:56:59;;;;;;;1.55;0.93;;;;;;;22.90;100.00;100623.81;5568807;31;33723;-68
2023/06/24 08:00:03;;;;;;;1.60;1.00;;;;;;;23.12;100.00;100618.53;5578198;31;34753;-69
2023/06/24 08:03:14;;;;;;;1.58;1.10;;;;;;;23.98;100.00;100625.31;5566625;31;34212;-70
2023/06/24 08:06:17;;;;;;;3.55;1.12;;;;;;;23.85;100.00;100623.81;5581408;31;34757;-69
2023/06/24 08:09:20;;;;;;;2.30;1.25;;;;;;;24.30;94.14;100629.06;5585353;31;35650;-68
2023/06/24 08:12:22;;;;;;;4.45;1.33;;;;;;;24.83;88.22;100631.03;5571869;31;34039;-70
2023/06/24 08:15:25;;;;;;;3.22;1.10;;;;;;;24.31;97.24;100635.28;5566383;31;33801;-69
2023/06/24 08:18:28;;;;;;;3.00;1.10;;;;;;;24.66;90.87;100631.13;5575261;31;34176;-67
2023/06/24 08:21:30;;;;;;;2.08;1.17;;;;;;;25.95;74.71;100635.53;5566109;31;34045;-70
2023/06/24 08:24:33;;;;;;;1.55;1.05;;;;;;;25.16;81.98;100623.78;5565756;32;33687;-69
2023/06/24 08:27:36;;;;;;;3.90;1.12;;;;;;;25.45;80.79;100623.22;5564877;32;34143;-70
2023/06/24 08:30:39;;;;;;;2.42;1.10;;;;;;;26.08;81.10;100629.66;5565496;32;34015;-67
2023/06/24 08:33:45;;;;;;;3.25;0.95;;;;;;;26.12;72.33;100632.66;5582088;31;34044;-69
2023/06/24 08:36:48;;;;;;;5.22;1.05;;;;;;;26.34;71.58;100628.72;5584342;31;34167;-67
2023/06/24 08:39:50;;;;;;;5.18;1.10;;;;;;;26.68;68.90;100639.16;5584447;31;34769;-66
2023/06/24 08:42:54;;;;;;;4.37;1.00;;;;;;;25.90;73.14;100632.81;5579424;31;34049;-69
2023/06/24 08:45:57;;;;;;;3.17;1.20;;;;;;;27.08;67.86;100641.19;5586430;31;33835;-67
2023/06/24 08:49:22;;;;;;;2.70;1.00;;;;;;;27.49;64.73;100650.25;5585028;31;34236;-68
2023/06/24 08:52:31;;;;;;;5.62;1.02;;;;;;;27.42;65.85;100638.78;5584457;31;33991;-68
2023/06/24 08:55:41;;;;;;;1.37;1.10;;;;;;;26.69;67.90;100643.53;5584885;31;33841;-67
2023/06/24 08:58:44;;;;;;;7.18;1.40;;;;;;;27.38;65.23;100640.41;5583737;31;33999;-70
2023/06/24 09:01:52;;;;;;;3.33;1.02;;;;;;;28.30;62.19;100641.94;5584798;31;34563;-69
2023/06/24 09:04:55;;;;;;;2.47;1.10;;;;;;;28.36;61.92;100640.84;5584575;31;34822;-68
2023/06/24 09:07:58;;;;;;;3.90;1.10;;;;;;;27.54;65.04;100629.28;5586215;31;35318;-68
2023/06/24 09:11:01;;;;;;;3.25;1.15;;;;;;;25.77;75.05;100623.19;5586800;31;34554;-69
2023/06/24 09:14:04;;;;;;;2.28;1.20;;;;;;;24.83;84.58;100632.94;5587757;31;34868;-69
2023/06/24 09:17:09;;;;;;;6.45;1.40;;;;;;;24.08;91.92;100626.28;5581759;31;34101;-67
2023/06/24 09:20:12;;;;;;;2.22;1.35;;;;;;;24.10;93.78;100624.16;5567403;32;34249;-69
2023/06/24 09:23:16;;;;;;;3.72;1.27;;;;;;;23.56;99.25;100622.28;5567358;32;34206;-69
2023/06/24 09:26:19;;;;;;;1.98;1.27;;;;;;;23.78;100.00;100621.25;5567569;32;35084;-67
2023/06/24 09:29:26;;;;;;;2.65;1.40;;;;;;;23.88;98.24;100628.72;5567488;32;34238;-68
2023/06/24 09:32:32;;;;;;;1.62;1.27;;;;;;;24.03;98.31;100634.34;5566821;32;33905;-69
2023/06/24 09:35:36;;;;;;;2.92;1.40;;;;;;;23.67;100.00;100635.72;5567525;32;34131;-69
2023/06/24 09:38:41;;;;;;;1.85;1.20;;;;;;;23.81;97.88;100636.22;5567956;32;34331;-69
2023/06/24 09:41:49;;;;;;;1.77;1.25;;;;;;;23.75;97.55;100634.50;5567714;32;34330;-71
2023/06/24 09:44:55;;;;;;;1.80;1.20;;;;;;;24.50;93.04;100632.00;5566986;32;34589;-70
2023/06/24 09:47:58;;;;;;;2.25;1.20;;;;;;;24.90;84.54;100628.13;5567708;32;34760;-68
2023/06/24 09:51:03;;;;;;;3.92;1.20;;;;;;;25.66;82.74;100632.34;5567499;32;34022;-69
2023/06/24 09:54:07;;;;;;;1.35;1.25;;;;;;;25.54;82.03;100620.84;5567429;32;33780;-68
2023/06/24 09:57:11;;;;;;;3.75;1.52;;;;;;;27.36;70.33;100623.50;5567610;32;34050;-68
2023/06/24 10:00:17;;;;;;;3.85;1.00;;;;;;;27.76;63.93;100626.22;5567799;32;34743;-69
2023/06/24 10:03:21;;;;;;;2.28;1.30;;;;;;;28.06;63.21;100636.25;5567613;32;34219;-70
2023/06/24 10:06:25;;;;;;;1.40;1.00;;;;;;;27.08;66.29;100628.41;5567671;32;34157;-69
2023/06/24 10:09:28;;;;;;;2.22;1.40;;;;;;;27.74;62.72;100619.44;5567348;32;33747;-70
2023/06/24 10:12:31;;;;;;;3.95;1.30;;;;;;;26.49;69.86;100614.34;5566511;31;34793;-69
2023/06/24 10:15:35;;;;;;;3.15;1.10;;;;;;;27.89;64.88;100612.03;5570277;31;33415;-69
2023/06/24 10:18:39;;;;;;;1.00;0.90;;;;;;;29.57;57.16;100603.75;5566984;32;33931;-70
2023/06/24 10:21:49;;;;;;;3.50;0.95;;;;;;;30.39;54.82;100610.78;5572434;31;34121;-67
2023/06/24 10:24:52;;;;;;;5.20;1.15;;;;;;;30.87;51.84;100599.72;5586085;31;35129;-71
2023/06/24 10:27:55;;;;;;;9.43;1.50;;;;;;;31.00;49.99;100585.28;5587081;31;34070;-67
2023/06/24 10:30:58;;;;;;;2.87;1.00;;;;;;;30.78;51.03;100588.63;5576714;31;33830;-71
2023/06/24 10:34:01;;;;;;;3.22;0.95;;;;;;;30.05;52.97;100588.22;5567336;32;34112;-70
2023/06/24 10:37:08;;;;;;;4.62;1.10;;;;;;;30.83;51.30;100587.75;5567622;32;34053;-69
2023/06/24 10:40:11;;;;;;;4.00;1.05;;;;;;;29.73;52.19;100578.69;5567071;32;34825;-71
2023/06/24 10:43:23;;;;;;;1.62;1.10;;;;;;;30.05;52.76;100577.28;5566460;32;34219;-71
2023/06/24 10:46:27;;;;;;;4.57;1.12;;;;;;;32.25;48.23;100591.53;5567415;32;33432;-68
2023/06/24 10:49:30;;;;;;;3.90;1.20;;;;;;;32.49;46.40;100583.06;5567292;32;34104;-69
2023/06/24 10:52:38;;;;;;;7.15;1.50;;;;;;;30.29;50.08;100574.50;5566046;32;34265;-70
2023/06/24 10:55:41;;;;;;;4.03;1.00;;;;;;;30.80;49.71;100578.19;5567566;32;34731;-69
2023/06/24 10:58:55;;;;;;;1.85;1.00;;;;;;;30.99;49.43;100586.37;5567224;32;34070;-71
2023/06/24 11:01:58;;;;;;;3.42;1.10;;;;;;;31.32;47.97;100596.28;5576729;31;34785;-68
2023/06/24 11:05:03;;;;;;;1.87;1.10;;;;;;;33.48;43.66;100599.44;5586651;31;34831;-70
2023/06/24 11:08:06;;;;;;;3.30;0.98;;;;;;;32.79;44.35;100593.41;5586596;31;34764;-68
2023/06/24 11:11:18;;;;;;;3.08;0.80;;;;;;;32.65;45.10;100589.87;5585986;31;34104;-68
2023/06/24 11:14:21;;;;;;;1.20;1.00;;;;;;;32.10;48.32;100595.41;5586097;31;34718;-70
2023/06/24 11:17:25;;;;;;;2.40;1.00;;;;;;;31.93;47.45;100593.28;5586582;31;33879;-70
2023/06/24 11:20:28;;;;;;;2.37;1.10;;;;;;;32.83;43.44;100597.16;5586535;31;34735;-69
2023/06/24 11:23:32;;;;;;;2.10;1.15;;;;;;;31.34;46.75;100587.75;5586594;31;34843;-70
2023/06/24 11:26:35;;;;;;;1.05;0.90;;;;;;;33.31;42.94;100589.13;5585816;31;33975;-71
2023/06/24 11:29:38;;;;;;;1.55;1.10;;;;;;;33.26;43.25;100591.22;5586415;31;35185;-72
2023/06/24 11:32:42;;;;;;;3.00;1.10;;;;;;;33.39;44.19;100591.12;5585667;31;34810;-67
2023/06/24 11:35:45;;;;;;;1.62;1.10;;;;;;;33.10;42.24;100588.81;5586942;31;35293;-70
2023/06/24 11:38:48;;;;;;;2.10;0.90;;;;;;;32.94;42.72;100570.25;5586067;31;34787;-67
2023/06/24 11:41:52;;;;;;;4.68;1.20;;;;;;;34.00;40.35;100568.28;5585945;31;33917;-69
2023/06/24 11:44:59;;;;;;;4.12;1.05;;;;;;;35.34;40.60;100575.72;5586259;31;34031;-69
2023/06/24 11:48:07;;;;;;;3.90;1.20;;;;;;;31.34;45.46;100563.91;5585752;31;34158;-68
2023/06/24 11:51:14;;;;;;;2.17;1.10;;;;;;;30.05;49.75;100541.72;5586269;31;34866;-69
2023/06/24 11:54:19;;;;;;;1.35;1.00;;;;;;;31.12;47.11;100538.25;5586261;31;33815;-69
2023/06/24 11:57:49;;;;;;;2.95;1.08;;;;;;;32.09;46.53;100530.66;5585799;31;34908;-68
2023/06/24 12:00:54;;;;;;;2.28;1.20;;;;;;;33.37;43.07;100532.88;5585600;31;34023;-69
2023/06/24 12:03:57;;;;;;;3.25;1.17;;;;;;;32.31;44.84;100529.91;5585940;31;34128;-68
2023/06/24 12:07:02;;;;;;;4.43;1.92;;;;;;;34.39;41.49;100528.03;5585796;31;34769;-69
2023/06/24 12:10:07;;;;;;;2.03;1.00;;;;;;;34.62;39.59;100535.03;5583415;31;34090;-68
2023/06/24 12:13:10;;;;;;;1.70;1.10;;;;;;;33.99;41.48;100525.34;5585080;31;34091;-70
2023/06/24 12:16:13;;;;;;;5.40;1.15;;;;;;;33.73;41.09;100526.41;5585834;31;34042;-71
2023/06/24 12:19:16;;;;;;;1.50;1.10;;;;;;;33.31;42.78;100514.87;5584800;31;33920;-71
2023/06/24 12:22:20;;;;;;;2.70;1.00;;;;;;;30.90;47.09;100523.22;5585661;31;34329;-70
2023/06/24 12:25:23;;;;;;;3.58;1.17;;;;;;;32.14;44.73;100522.34;5585879;31;34098;-70
2023/06/24 12:28:25;;;;;;;1.73;1.10;;;;;;;32.59;43.58;100519.66;5586144;31;34674;-69
2023/06/24 12:31:28;;;;;;;0.80;0.80;;;;;;;31.84;45.40;100521.03;5585867;31;34124;-70
2023/06/24 12:34:31;;;;;;;2.03;1.00;;;;;;;30.51;48.91;100512.63;5585649;31;34142;-68
2023/06/24 12:37:34;;;;;;;5.62;1.20;;;;;;;30.99;49.00;100515.94;5584462;31;34127;-70
2023/06/24 12:40:36;;;;;;;2.15;0.90;;;;;;;30.60;49.61;100515.50;5584786;31;34190;-70
2023/06/24 12:43:40;;;;;;;3.25;1.15;;;;;;;31.58;47.83;100511.66;5587622;31;34299;-70
2023/06/24 12:46:42;;;;;;;2.25;1.10;;;;;;;30.49;49.77;100516.78;5587853;31;34177;-71
2023/06/24 12:49:45;;;;;;;2.70;1.17;;;;;;;32.29;46.65;100511.00;5588027;31;34045;-68
2023/06/24 12:52:48;;;;;;;1.40;0.82;;;;;;;30.43;48.83;100509.72;5587839;31;33760;-69
2023/06/24 12:55:51;;;;;;;1.92;1.10;;;;;;;31.72;48.66;100506.97;5587914;31;34907;-69
2023/06/24 12:58:53;;;;;;;6.68;1.05;;;;;;;29.37;51.58;100493.50;5587926;31;34134;-71
2023/06/24 13:01:56;;;;;;;2.37;1.15;;;;;;;27.99;57.23;100505.63;5587780;31;34153;-72
2023/06/24 13:04:59;;;;;;;1.60;0.98;;;;;;;30.40;50.41;100485.69;5586546;31;34136;-70
2023/06/24 13:08:02;;;;;;;2.12;0.85;;;;;;;31.52;48.54;100475.25;5586870;31;34877;-70
2023/06/24 13:11:04;;;;;;;1.73;1.00;;;;;;;32.90;45.73;100495.84;5586788;31;33943;-70
2023/06/24 13:14:07;;;;;;;2.42;1.00;;;;;;;31.85;47.63;100491.66;5587028;31;35134;-69
2023/06/24 13:17:10;;;;;;;2.85;1.17;;;;;;;33.70;43.46;100494.03;5571078;31;34033;-70
2023/06/24 13:20:13;;;;;;;1.30;0.93;;;;;;;32.98;43.14;100500.59;5567793;32;34167;-67
2023/06/24 13:23:15;;;;;;;2.05;1.10;;;;;;;33.93;42.76;100512.09;5568209;32;34112;-69
2023/06/24 13:26:18;;;;;;;1.10;1.00;;;;;;;34.69;40.55;100510.59;5567653;32;34275;-68
2023/06/24 13:29:21;;;;;;;1.87;1.00;;;;;;;33.03;43.97;100518.87;5568076;32;34161;-70
2023/06/24 13:32:24;;;;;;;1.30;0.90;;;;;;;33.84;41.93;100512.03;5567810;32;35155;-68
2023/06/24 13:35:26;;;;;;;3.08;1.30;;;;;;;33.47;43.05;100524.34;5567847;32;33988;-69
2023/06/24 13:38:30;;;;;;;2.65;1.10;;;;;;;33.46;43.41;100522.72;5566843;32;34055;-69
2023/06/24 13:41:33;;;;;;;1.87;1.20;;;;;;;32.98;44.55;100508.84;5568044;32;34617;-70
2023/06/24 13:44:36;;;;;;;4.78;1.33;;;;;;;32.98;45.03;100511.56;5583525;31;34190;-69
2023/06/24 13:47:39;;;;;;;2.83;1.37;;;;;;;32.62;44.01;100514.38;5582105;31;34273;-70
2023/06/24 13:50:42;;;;;;;2.10;1.27;;;;;;;31.14;47.39;100508.59;5587127;31;34251;-69
2023/06/24 13:53:44;;;;;;;2.62;1.30;;;;;;;33.55;42.14;100511.78;5585953;31;33724;-68
2023/06/24 13:56:47;;;;;;;1.50;1.37;;;;;;;33.19;43.74;100523.72;5586427;31;34139;-70
2023/06/24 13:59:50;;;;;;;3.80;1.27;;;;;;;33.47;43.09;100524.34;5587209;31;34269;-71
2023/06/24 14:02:52;;;;;;;3.03;1.30;;;;;;;34.57;40.14;100526.91;5582530;31;34124;-69
2023/06/24 14:05:56;;;;;;;3.22;1.30;;;;;;;32.30;44.13;100523.62;5567512;32;34066;-70
2023/06/24 14:08:59;;;;;;;5.35;1.60;;;;;;;33.48;43.29;100516.91;5566912;32;34172;-70
2023/06/24 14:12:02;;;;;;;1.70;1.50;;;;;;;32.51;44.96;100515.72;5567543;32;34063;-70